Dickey, North Dakota
Current Conditions -  °F | °C
As of 5:56 AM on Thursday 23 Oct 2014 (Local Time) from KJMS Reporting Station
Clear Clear  
Wind Chill: 38°   Ceiling: Unl
Heat Index: 42°   Visibility: 10mi
Dew Point: 36°   Wind: 6mph
Humidity: 79%   Direction: 230°SW
Pressure: 29.89"   Gusts: NA
Location:  46.54°N, 98.47°W
Report Text: KJMS 231056Z AUTO 23005KT 10SM CLR 06/02 A2989 RMK AO2 SLP129 T00560022
Loading
Personal Weather Stations






























Interactive Weather Map New forecast layout! Learn more

10-Day Weather Forecast

Advertisements
Track Severe Weather on mobile